sensor_id;sensor_type;location;lat;lon;timestamp;P1;durP1;ratioP1;P2;durP2;ratioP2
10277;SDS011;5184;51.376;7.148;2023-01-15T00:01:27;7.13;;;1.57;;
10277;SDS011;5184;51.376;7.148;2023-01-15T00:03:53;6.40;;;1.30;;
10277;SDS011;5184;51.376;7.148;2023-01-15T00:06:20;3.63;;;1.20;;
10277;SDS011;5184;51.376;7.148;2023-01-15T00:08:47;3.67;;;1.53;;
10277;SDS011;5184;51.376;7.148;2023-01-15T00:11:14;1.97;;;1.20;;
10277;SDS011;5184;51.376;7.148;2023-01-15T00:13:41;5.37;;;1.30;;
10277;SDS011;5184;51.376;7.148;2023-01-15T00:16:10;5.17;;;1.20;;
10277;SDS011;5184;51.376;7.148;2023-01-15T00:18:36;4.13;;;1.40;;
10277;SDS011;5184;51.376;7.148;2023-01-15T00:21:04;3.43;;;1.53;;
10277;SDS011;5184;51.376;7.148;2023-01-15T00:23:30;5.63;;;1.43;;
10277;SDS011;5184;51.376;7.148;2023-01-15T00:26:02;6.40;;;1.20;;
10277;SDS011;5184;51.376;7.148;2023-01-15T00:28:35;5.37;;;1.60;;
10277;SDS011;5184;51.376;7.148;2023-01-15T00:31:03;5.30;;;1.70;;
10277;SDS011;5184;51.376;7.148;2023-01-15T00:33:29;4.13;;;2.27;;
10277;SDS011;5184;51.376;7.148;2023-01-15T00:35:56;6.03;;;2.50;;
10277;SDS011;5184;51.376;7.148;2023-01-15T00:38:23;9.17;;;3.77;;
10277;SDS011;5184;51.376;7.148;2023-01-15T00:40:50;6.53;;;3.10;;
10277;SDS011;5184;51.376;7.148;2023-01-15T00:43:17;6.73;;;3.27;;
10277;SDS011;5184;51.376;7.148;2023-01-15T00:45:45;7.20;;;3.27;;
10277;SDS011;5184;51.376;7.148;2023-01-15T00:48:12;7.33;;;2.63;;
10277;SDS011;5184;51.376;7.148;2023-01-15T00:50:39;3.90;;;2.07;;
10277;SDS011;5184;51.376;7.148;2023-01-15T00:53:07;3.70;;;2.20;;
10277;SDS011;5184;51.376;7.148;2023-01-15T00:55:34;7.30;;;2.30;;
10277;SDS011;5184;51.376;7.148;2023-01-15T00:58:02;5.63;;;2.20;;
10277;SDS011;5184;51.376;7.148;2023-01-15T01:00:28;4.33;;;2.27;;
10277;SDS011;5184;51.376;7.148;2023-01-15T01:02:55;4.63;;;1.83;;
10277;SDS011;5184;51.376;7.148;2023-01-15T01:05:22;6.93;;;2.33;;
10277;SDS011;5184;51.376;7.148;2023-01-15T01:07:49;3.50;;;1.80;;
10277;SDS011;5184;51.376;7.148;2023-01-15T01:10:16;3.67;;;1.73;;
10277;SDS011;5184;51.376;7.148;2023-01-15T01:12:44;4.43;;;1.23;;
10277;SDS011;5184;51.376;7.148;2023-01-15T01:15:11;3.03;;;1.30;;
10277;SDS011;5184;51.376;7.148;2023-01-15T01:17:38;4.17;;;0.93;;
10277;SDS011;5184;51.376;7.148;2023-01-15T01:20:06;3.40;;;1.47;;
10277;SDS011;5184;51.376;7.148;2023-01-15T01:22:34;1.93;;;1.03;;
10277;SDS011;5184;51.376;7.148;2023-01-15T01:25:01;2.23;;;1.00;;
10277;SDS011;5184;51.376;7.148;2023-01-15T01:27:27;2.03;;;1.07;;
10277;SDS011;5184;51.376;7.148;2023-01-15T01:29:54;1.53;;;0.93;;
10277;SDS011;5184;51.376;7.148;2023-01-15T01:32:20;3.37;;;1.10;;
10277;SDS011;5184;51.376;7.148;2023-01-15T01:34:47;2.57;;;0.97;;
10277;SDS011;5184;51.376;7.148;2023-01-15T01:37:13;4.20;;;0.80;;
10277;SDS011;5184;51.376;7.148;2023-01-15T01:39:40;4.53;;;1.10;;
10277;SDS011;5184;51.376;7.148;2023-01-15T01:42:10;4.53;;;0.80;;
10277;SDS011;5184;51.376;7.148;2023-01-15T01:47:22;1.77;;;0.80;;
10277;SDS011;5184;51.376;7.148;2023-01-15T01:49:50;2.90;;;0.80;;
10277;SDS011;5184;51.376;7.148;2023-01-15T01:52:17;2.50;;;1.10;;
10277;SDS011;5184;51.376;7.148;2023-01-15T01:54:45;1.20;;;0.93;;
10277;SDS011;5184;51.376;7.148;2023-01-15T01:57:11;3.40;;;0.90;;
10277;SDS011;5184;51.376;7.148;2023-01-15T01:59:38;2.40;;;1.03;;
10277;SDS011;5184;51.376;7.148;2023-01-15T02:02:05;2.10;;;1.37;;
10277;SDS011;5184;51.376;7.148;2023-01-15T02:04:33;2.70;;;1.07;;
10277;SDS011;5184;51.376;7.148;2023-01-15T02:07:01;1.70;;;1.10;;
10277;SDS011;5184;51.376;7.148;2023-01-15T02:09:28;2.63;;;1.07;;
10277;SDS011;5184;51.376;7.148;2023-01-15T02:11:56;2.83;;;0.83;;
10277;SDS011;5184;51.376;7.148;2023-01-15T02:14:24;3.37;;;1.10;;
10277;SDS011;5184;51.376;7.148;2023-01-15T02:16:51;1.63;;;1.00;;
10277;SDS011;5184;51.376;7.148;2023-01-15T02:19:27;4.67;;;1.10;;
10277;SDS011;5184;51.376;7.148;2023-01-15T02:21:55;2.77;;;1.10;;
10277;SDS011;5184;51.376;7.148;2023-01-15T02:24:31;1.63;;;1.00;;
10277;SDS011;5184;51.376;7.148;2023-01-15T02:27:00;2.83;;;1.20;;
10277;SDS011;5184;51.376;7.148;2023-01-15T02:29:45;2.47;;;0.90;;
10277;SDS011;5184;51.376;7.148;2023-01-15T02:32:22;4.33;;;1.20;;
10277;SDS011;5184;51.376;7.148;2023-01-15T02:34:49;4.20;;;1.17;;
10277;SDS011;5184;51.376;7.148;2023-01-15T02:37:18;7.00;;;1.10;;
10277;SDS011;5184;51.376;7.148;2023-01-15T02:39:44;3.97;;;1.50;;
10277;SDS011;5184;51.376;7.148;2023-01-15T02:42:11;2.73;;;1.03;;
10277;SDS011;5184;51.376;7.148;2023-01-15T02:44:40;1.43;;;0.80;;
10277;SDS011;5184;51.376;7.148;2023-01-15T02:47:06;2.50;;;1.00;;
10277;SDS011;5184;51.376;7.148;2023-01-15T02:49:33;3.17;;;1.20;;
10277;SDS011;5184;51.376;7.148;2023-01-15T02:52:09;2.80;;;1.10;;
10277;SDS011;5184;51.376;7.148;2023-01-15T02:54:40;4.70;;;1.50;;
10277;SDS011;5184;51.376;7.148;2023-01-15T02:57:09;3.07;;;0.80;;
10277;SDS011;5184;51.376;7.148;2023-01-15T02:59:36;2.13;;;1.10;;
10277;SDS011;5184;51.376;7.148;2023-01-15T03:02:02;2.47;;;1.27;;
10277;SDS011;5184;51.376;7.148;2023-01-15T03:04:31;4.90;;;1.20;;
10277;SDS011;5184;51.376;7.148;2023-01-15T03:06:59;5.13;;;1.07;;
10277;SDS011;5184;51.376;7.148;2023-01-15T03:09:30;4.70;;;1.17;;
10277;SDS011;5184;51.376;7.148;2023-01-15T03:12:00;3.63;;;1.00;;
10277;SDS011;5184;51.376;7.148;2023-01-15T03:14:32;2.20;;;0.90;;
10277;SDS011;5184;51.376;7.148;2023-01-15T03:16:57;1.80;;;0.90;;
10277;SDS011;5184;51.376;7.148;2023-01-15T03:19:36;3.33;;;1.10;;
10277;SDS011;5184;51.376;7.148;2023-01-15T03:22:08;1.87;;;0.90;;
10277;SDS011;5184;51.376;7.148;2023-01-15T03:24:53;2.97;;;1.17;;
10277;SDS011;5184;51.376;7.148;2023-01-15T03:27:20;2.67;;;1.00;;
10277;SDS011;5184;51.376;7.148;2023-01-15T03:29:47;2.63;;;0.87;;
10277;SDS011;5184;51.376;7.148;2023-01-15T03:32:13;2.30;;;1.00;;
10277;SDS011;5184;51.376;7.148;2023-01-15T03:34:41;1.07;;;0.70;;
10277;SDS011;5184;51.376;7.148;2023-01-15T03:37:07;2.40;;;0.77;;
10277;SDS011;5184;51.376;7.148;2023-01-15T03:39:35;1.00;;;0.70;;
10277;SDS011;5184;51.376;7.148;2023-01-15T03:42:10;2.20;;;0.83;;
10277;SDS011;5184;51.376;7.148;2023-01-15T03:47:26;2.70;;;0.77;;
10277;SDS011;5184;51.376;7.148;2023-01-15T03:50:09;1.53;;;0.80;;
10277;SDS011;5184;51.376;7.148;2023-01-15T03:52:56;1.20;;;0.97;;
10277;SDS011;5184;51.376;7.148;2023-01-15T03:55:22;2.63;;;1.00;;
10277;SDS011;5184;51.376;7.148;2023-01-15T03:57:49;1.93;;;1.10;;
10277;SDS011;5184;51.376;7.148;2023-01-15T04:00:25;1.67;;;0.93;;
10277;SDS011;5184;51.376;7.148;2023-01-15T04:03:12;2.10;;;0.80;;
10277;SDS011;5184;51.376;7.148;2023-01-15T04:05:39;3.47;;;0.80;;
10277;SDS011;5184;51.376;7.148;2023-01-15T04:08:05;2.47;;;1.10;;
10277;SDS011;5184;51.376;7.148;2023-01-15T04:10:32;2.60;;;0.93;;
10277;SDS011;5184;51.376;7.148;2023-01-15T04:12:58;3.37;;;1.00;;
10277;SDS011;5184;51.376;7.148;2023-01-15T04:15:25;3.23;;;1.00;;
10277;SDS011;5184;51.376;7.148;2023-01-15T04:17:52;3.27;;;1.30;;
10277;SDS011;5184;51.376;7.148;2023-01-15T04:20:18;2.93;;;0.90;;
10277;SDS011;5184;51.376;7.148;2023-01-15T04:22:45;3.40;;;1.20;;
10277;SDS011;5184;51.376;7.148;2023-01-15T04:25:11;2.63;;;1.07;;
10277;SDS011;5184;51.376;7.148;2023-01-15T04:27:38;1.63;;;0.90;;
10277;SDS011;5184;51.376;7.148;2023-01-15T04:30:05;2.37;;;1.03;;
10277;SDS011;5184;51.376;7.148;2023-01-15T04:32:33;4.57;;;1.17;;
10277;SDS011;5184;51.376;7.148;2023-01-15T04:35:00;3.13;;;1.20;;
10277;SDS011;5184;51.376;7.148;2023-01-15T04:37:27;3.77;;;1.10;;
10277;SDS011;5184;51.376;7.148;2023-01-15T04:39:55;3.60;;;1.33;;
10277;SDS011;5184;51.376;7.148;2023-01-15T04:42:22;2.10;;;1.23;;
10277;SDS011;5184;51.376;7.148;2023-01-15T04:44:54;2.20;;;1.07;;
10277;SDS011;5184;51.376;7.148;2023-01-15T04:47:21;2.77;;;1.00;;
10277;SDS011;5184;51.376;7.148;2023-01-15T04:49:47;5.60;;;0.93;;
10277;SDS011;5184;51.376;7.148;2023-01-15T04:52:14;3.43;;;1.20;;
10277;SDS011;5184;51.376;7.148;2023-01-15T04:54:41;2.60;;;1.10;;
10277;SDS011;5184;51.376;7.148;2023-01-15T04:57:07;4.20;;;1.50;;
10277;SDS011;5184;51.376;7.148;2023-01-15T04:59:34;4.10;;;1.37;;
10277;SDS011;5184;51.376;7.148;2023-01-15T05:02:02;4.90;;;1.47;;
10277;SDS011;5184;51.376;7.148;2023-01-15T05:04:29;3.63;;;1.13;;
10277;SDS011;5184;51.376;7.148;2023-01-15T05:06:57;4.33;;;1.20;;
10277;SDS011;5184;51.376;7.148;2023-01-15T05:09:24;2.63;;;1.40;;
10277;SDS011;5184;51.376;7.148;2023-01-15T05:11:51;4.97;;;1.20;;
10277;SDS011;5184;51.376;7.148;2023-01-15T05:14:17;4.20;;;1.23;;
10277;SDS011;5184;51.376;7.148;2023-01-15T05:16:44;5.13;;;1.40;;
10277;SDS011;5184;51.376;7.148;2023-01-15T05:19:10;5.13;;;1.20;;
10277;SDS011;5184;51.376;7.148;2023-01-15T05:21:39;3.83;;;1.60;;
10277;SDS011;5184;51.376;7.148;2023-01-15T05:24:05;2.70;;;1.13;;
10277;SDS011;5184;51.376;7.148;2023-01-15T05:26:32;13.03;;;1.53;;
10277;SDS011;5184;51.376;7.148;2023-01-15T05:28:59;4.00;;;1.30;;
10277;SDS011;5184;51.376;7.148;2023-01-15T05:31:26;2.87;;;1.27;;
10277;SDS011;5184;51.376;7.148;2023-01-15T05:33:54;4.37;;;1.30;;
10277;SDS011;5184;51.376;7.148;2023-01-15T05:36:22;5.17;;;1.50;;
10277;SDS011;5184;51.376;7.148;2023-01-15T05:38:49;4.13;;;1.20;;
10277;SDS011;5184;51.376;7.148;2023-01-15T05:41:17;5.97;;;1.20;;
10277;SDS011;5184;51.376;7.148;2023-01-15T05:43:50;5.20;;;1.57;;
10277;SDS011;5184;51.376;7.148;2023-01-15T05:46:17;6.13;;;1.40;;
10277;SDS011;5184;51.376;7.148;2023-01-15T05:48:44;5.43;;;1.50;;
10277;SDS011;5184;51.376;7.148;2023-01-15T05:51:12;7.93;;;1.50;;
10277;SDS011;5184;51.376;7.148;2023-01-15T05:53:39;6.10;;;1.40;;
10277;SDS011;5184;51.376;7.148;2023-01-15T05:56:06;10.10;;;1.83;;
10277;SDS011;5184;51.376;7.148;2023-01-15T05:58:33;5.13;;;1.30;;
10277;SDS011;5184;51.376;7.148;2023-01-15T06:01:00;7.17;;;1.90;;
10277;SDS011;5184;51.376;7.148;2023-01-15T06:03:26;7.00;;;1.73;;
10277;SDS011;5184;51.376;7.148;2023-01-15T06:05:54;5.80;;;1.63;;
10277;SDS011;5184;51.376;7.148;2023-01-15T06:08:21;8.13;;;1.40;;
10277;SDS011;5184;51.376;7.148;2023-01-15T06:10:47;6.63;;;1.43;;
10277;SDS011;5184;51.376;7.148;2023-01-15T06:13:14;4.97;;;1.57;;
10277;SDS011;5184;51.376;7.148;2023-01-15T06:15:40;3.43;;;1.37;;
10277;SDS011;5184;51.376;7.148;2023-01-15T06:18:07;5.23;;;1.40;;
10277;SDS011;5184;51.376;7.148;2023-01-15T06:20:35;6.00;;;1.93;;
10277;SDS011;5184;51.376;7.148;2023-01-15T06:23:02;5.13;;;1.93;;
10277;SDS011;5184;51.376;7.148;2023-01-15T06:25:31;5.17;;;1.83;;
10277;SDS011;5184;51.376;7.148;2023-01-15T06:27:57;7.73;;;1.90;;
10277;SDS011;5184;51.376;7.148;2023-01-15T06:30:24;5.77;;;1.40;;
10277;SDS011;5184;51.376;7.148;2023-01-15T06:32:50;5.40;;;1.93;;
10277;SDS011;5184;51.376;7.148;2023-01-15T06:35:17;4.70;;;1.80;;
10277;SDS011;5184;51.376;7.148;2023-01-15T06:37:43;6.00;;;1.60;;
10277;SDS011;5184;51.376;7.148;2023-01-15T06:40:10;6.93;;;1.50;;
10277;SDS011;5184;51.376;7.148;2023-01-15T06:42:38;5.33;;;1.67;;
10277;SDS011;5184;51.376;7.148;2023-01-15T06:45:10;7.43;;;1.70;;
10277;SDS011;5184;51.376;7.148;2023-01-15T06:47:42;4.87;;;1.30;;
10277;SDS011;5184;51.376;7.148;2023-01-15T06:50:10;6.97;;;1.20;;
10277;SDS011;5184;51.376;7.148;2023-01-15T06:52:37;3.47;;;1.70;;
10277;SDS011;5184;51.376;7.148;2023-01-15T06:55:04;7.33;;;1.50;;
10277;SDS011;5184;51.376;7.148;2023-01-15T06:57:31;3.83;;;1.43;;
10277;SDS011;5184;51.376;7.148;2023-01-15T06:59:58;4.63;;;1.67;;
10277;SDS011;5184;51.376;7.148;2023-01-15T07:02:24;8.87;;;1.67;;
10277;SDS011;5184;51.376;7.148;2023-01-15T07:04:52;5.57;;;1.63;;
10277;SDS011;5184;51.376;7.148;2023-01-15T07:07:19;6.70;;;1.57;;
10277;SDS011;5184;51.376;7.148;2023-01-15T07:09:47;4.83;;;1.40;;
10277;SDS011;5184;51.376;7.148;2023-01-15T07:12:14;6.30;;;1.47;;
10277;SDS011;5184;51.376;7.148;2023-01-15T07:14:41;4.87;;;1.70;;
10277;SDS011;5184;51.376;7.148;2023-01-15T07:17:07;6.23;;;1.60;;
10277;SDS011;5184;51.376;7.148;2023-01-15T07:19:34;3.93;;;1.63;;
10277;SDS011;5184;51.376;7.148;2023-01-15T07:22:01;5.37;;;1.67;;
10277;SDS011;5184;51.376;7.148;2023-01-15T07:24:28;6.67;;;1.60;;
10277;SDS011;5184;51.376;7.148;2023-01-15T07:26:55;7.73;;;2.00;;
10277;SDS011;5184;51.376;7.148;2023-01-15T07:29:22;5.23;;;1.67;;
10277;SDS011;5184;51.376;7.148;2023-01-15T07:31:49;5.33;;;1.40;;
10277;SDS011;5184;51.376;7.148;2023-01-15T07:34:17;4.77;;;1.43;;
10277;SDS011;5184;51.376;7.148;2023-01-15T07:36:44;7.17;;;1.40;;
10277;SDS011;5184;51.376;7.148;2023-01-15T07:39:11;5.57;;;1.37;;
10277;SDS011;5184;51.376;7.148;2023-01-15T07:41:39;5.40;;;1.67;;
10277;SDS011;5184;51.376;7.148;2023-01-15T07:44:11;3.97;;;1.50;;
10277;SDS011;5184;51.376;7.148;2023-01-15T07:46:44;4.70;;;1.47;;
10277;SDS011;5184;51.376;7.148;2023-01-15T07:49:16;4.50;;;1.90;;
10277;SDS011;5184;51.376;7.148;2023-01-15T07:51:48;5.83;;;1.30;;
10277;SDS011;5184;51.376;7.148;2023-01-15T07:54:15;5.60;;;1.10;;
10277;SDS011;5184;51.376;7.148;2023-01-15T07:56:42;6.57;;;1.60;;
10277;SDS011;5184;51.376;7.148;2023-01-15T07:59:08;7.47;;;1.40;;
10277;SDS011;5184;51.376;7.148;2023-01-15T08:01:35;6.77;;;1.43;;
10277;SDS011;5184;51.376;7.148;2023-01-15T08:04:02;6.10;;;1.80;;
10277;SDS011;5184;51.376;7.148;2023-01-15T08:06:29;4.93;;;1.80;;
10277;SDS011;5184;51.376;7.148;2023-01-15T08:08:56;4.80;;;1.57;;
10277;SDS011;5184;51.376;7.148;2023-01-15T08:11:24;7.67;;;1.70;;
10277;SDS011;5184;51.376;7.148;2023-01-15T08:13:56;6.37;;;1.40;;
10277;SDS011;5184;51.376;7.148;2023-01-15T08:16:29;5.03;;;1.97;;
10277;SDS011;5184;51.376;7.148;2023-01-15T08:18:57;7.43;;;1.73;;
10277;SDS011;5184;51.376;7.148;2023-01-15T08:21:24;3.93;;;1.57;;
10277;SDS011;5184;51.376;7.148;2023-01-15T08:23:51;5.67;;;1.37;;
10277;SDS011;5184;51.376;7.148;2023-01-15T08:26:18;8.37;;;1.37;;
10277;SDS011;5184;51.376;7.148;2023-01-15T08:28:45;5.87;;;1.43;;
10277;SDS011;5184;51.376;7.148;2023-01-15T08:31:13;5.30;;;1.37;;
10277;SDS011;5184;51.376;7.148;2023-01-15T08:33:40;3.60;;;1.50;;
10277;SDS011;5184;51.376;7.148;2023-01-15T08:36:07;3.90;;;1.40;;
10277;SDS011;5184;51.376;7.148;2023-01-15T08:38:35;6.03;;;1.50;;
10277;SDS011;5184;51.376;7.148;2023-01-15T08:41:02;2.77;;;1.30;;
10277;SDS011;5184;51.376;7.148;2023-01-15T08:43:30;4.40;;;1.10;;
10277;SDS011;5184;51.376;7.148;2023-01-15T08:45:56;6.93;;;1.50;;
10277;SDS011;5184;51.376;7.148;2023-01-15T08:48:23;5.03;;;1.60;;
10277;SDS011;5184;51.376;7.148;2023-01-15T08:50:49;4.70;;;1.50;;
10277;SDS011;5184;51.376;7.148;2023-01-15T08:53:16;3.50;;;1.30;;
10277;SDS011;5184;51.376;7.148;2023-01-15T08:55:42;3.40;;;1.13;;
10277;SDS011;5184;51.376;7.148;2023-01-15T08:58:09;5.83;;;1.10;;
10277;SDS011;5184;51.376;7.148;2023-01-15T09:00:36;3.20;;;1.20;;
10277;SDS011;5184;51.376;7.148;2023-01-15T09:03:02;4.10;;;1.63;;
10277;SDS011;5184;51.376;7.148;2023-01-15T09:05:29;3.93;;;1.17;;
10277;SDS011;5184;51.376;7.148;2023-01-15T09:07:55;2.20;;;1.30;;
10277;SDS011;5184;51.376;7.148;2023-01-15T09:10:23;3.33;;;1.10;;
10277;SDS011;5184;51.376;7.148;2023-01-15T09:12:49;4.27;;;1.23;;
10277;SDS011;5184;51.376;7.148;2023-01-15T09:15:16;4.83;;;1.00;;
10277;SDS011;5184;51.376;7.148;2023-01-15T09:17:44;4.80;;;1.30;;
10277;SDS011;5184;51.376;7.148;2023-01-15T09:20:12;3.70;;;2.00;;
10277;SDS011;5184;51.376;7.148;2023-01-15T09:22:38;2.60;;;1.20;;
10277;SDS011;5184;51.376;7.148;2023-01-15T09:25:05;5.03;;;1.40;;
10277;SDS011;5184;51.376;7.148;2023-01-15T09:27:32;3.77;;;1.20;;
10277;SDS011;5184;51.376;7.148;2023-01-15T09:29:58;4.67;;;1.50;;
10277;SDS011;5184;51.376;7.148;2023-01-15T09:32:25;2.93;;;0.83;;
10277;SDS011;5184;51.376;7.148;2023-01-15T09:34:52;3.77;;;1.30;;
10277;SDS011;5184;51.376;7.148;2023-01-15T09:37:18;6.50;;;1.33;;
10277;SDS011;5184;51.376;7.148;2023-01-15T09:39:45;3.17;;;1.20;;
10277;SDS011;5184;51.376;7.148;2023-01-15T09:45:06;7.23;;;2.00;;
10277;SDS011;5184;51.376;7.148;2023-01-15T09:47:39;5.97;;;1.30;;
10277;SDS011;5184;51.376;7.148;2023-01-15T09:50:14;3.87;;;1.00;;
10277;SDS011;5184;51.376;7.148;2023-01-15T09:52:48;4.40;;;1.30;;
10277;SDS011;5184;51.376;7.148;2023-01-15T09:55:12;5.13;;;1.30;;
10277;SDS011;5184;51.376;7.148;2023-01-15T09:57:38;3.07;;;1.30;;
10277;SDS011;5184;51.376;7.148;2023-01-15T10:00:05;5.00;;;1.50;;
10277;SDS011;5184;51.376;7.148;2023-01-15T10:02:34;4.53;;;1.10;;
10277;SDS011;5184;51.376;7.148;2023-01-15T10:05:06;6.57;;;1.57;;
10277;SDS011;5184;51.376;7.148;2023-01-15T10:07:31;4.30;;;1.20;;
10277;SDS011;5184;51.376;7.148;2023-01-15T10:09:58;3.90;;;1.47;;
10277;SDS011;5184;51.376;7.148;2023-01-15T10:12:25;4.13;;;1.20;;
10277;SDS011;5184;51.376;7.148;2023-01-15T10:15:01;5.13;;;1.20;;
10277;SDS011;5184;51.376;7.148;2023-01-15T10:17:27;6.80;;;2.10;;
10277;SDS011;5184;51.376;7.148;2023-01-15T10:19:52;5.03;;;1.63;;
10277;SDS011;5184;51.376;7.148;2023-01-15T10:22:24;4.47;;;1.40;;
10277;SDS011;5184;51.376;7.148;2023-01-15T10:25:03;6.30;;;2.10;;
10277;SDS011;5184;51.376;7.148;2023-01-15T10:27:30;6.97;;;1.50;;
10277;SDS011;5184;51.376;7.148;2023-01-15T10:30:00;5.93;;;1.57;;
10277;SDS011;5184;51.376;7.148;2023-01-15T10:32:46;8.77;;;1.83;;
10277;SDS011;5184;51.376;7.148;2023-01-15T10:35:50;4.60;;;1.50;;
10277;SDS011;5184;51.376;7.148;2023-01-15T10:38:04;5.50;;;1.80;;
10277;SDS011;5184;51.376;7.148;2023-01-15T10:40:30;7.57;;;1.80;;
10277;SDS011;5184;51.376;7.148;2023-01-15T10:43:30;6.53;;;2.37;;
10277;SDS011;5184;51.376;7.148;2023-01-15T10:45:51;5.87;;;1.70;;
10277;SDS011;5184;51.376;7.148;2023-01-15T10:48:23;5.73;;;1.80;;
10277;SDS011;5184;51.376;7.148;2023-01-15T10:50:47;6.87;;;2.53;;
10277;SDS011;5184;51.376;7.148;2023-01-15T10:53:19;4.47;;;1.43;;
10277;SDS011;5184;51.376;7.148;2023-01-15T10:55:45;6.10;;;2.03;;
10277;SDS011;5184;51.376;7.148;2023-01-15T10:58:20;4.03;;;1.50;;
10277;SDS011;5184;51.376;7.148;2023-01-15T11:00:49;5.63;;;1.40;;
10277;SDS011;5184;51.376;7.148;2023-01-15T11:03:16;7.53;;;2.07;;
10277;SDS011;5184;51.376;7.148;2023-01-15T11:05:42;4.90;;;2.10;;
10277;SDS011;5184;51.376;7.148;2023-01-15T11:08:13;4.10;;;1.70;;
10277;SDS011;5184;51.376;7.148;2023-01-15T11:10:36;3.57;;;1.73;;
10277;SDS011;5184;51.376;7.148;2023-01-15T11:13:14;6.83;;;2.90;;
10277;SDS011;5184;51.376;7.148;2023-01-15T11:15:52;7.07;;;2.23;;
10277;SDS011;5184;51.376;7.148;2023-01-15T11:18:27;7.57;;;2.37;;
10277;SDS011;5184;51.376;7.148;2023-01-15T11:20:58;5.00;;;1.70;;
10277;SDS011;5184;51.376;7.148;2023-01-15T11:23:25;4.30;;;1.60;;
10277;SDS011;5184;51.376;7.148;2023-01-15T11:25:55;4.63;;;1.53;;
10277;SDS011;5184;51.376;7.148;2023-01-15T11:28:38;3.70;;;1.63;;
10277;SDS011;5184;51.376;7.148;2023-01-15T11:31:05;3.03;;;1.20;;
10277;SDS011;5184;51.376;7.148;2023-01-15T11:33:32;4.90;;;1.40;;
10277;SDS011;5184;51.376;7.148;2023-01-15T11:36:02;4.73;;;1.77;;
10277;SDS011;5184;51.376;7.148;2023-01-15T11:38:27;5.30;;;1.40;;
10277;SDS011;5184;51.376;7.148;2023-01-15T11:40:54;6.50;;;1.53;;
10277;SDS011;5184;51.376;7.148;2023-01-15T11:43:23;5.63;;;1.27;;
10277;SDS011;5184;51.376;7.148;2023-01-15T11:45:56;3.97;;;1.50;;
10277;SDS011;5184;51.376;7.148;2023-01-15T11:48:28;4.27;;;1.20;;
10277;SDS011;5184;51.376;7.148;2023-01-15T11:51:05;4.43;;;1.30;;
10277;SDS011;5184;51.376;7.148;2023-01-15T11:53:29;3.93;;;1.43;;
10277;SDS011;5184;51.376;7.148;2023-01-15T11:55:59;2.43;;;1.20;;
10277;SDS011;5184;51.376;7.148;2023-01-15T11:58:27;8.93;;;1.90;;
10277;SDS011;5184;51.376;7.148;2023-01-15T12:00:53;3.73;;;1.50;;
10277;SDS011;5184;51.376;7.148;2023-01-15T12:03:21;4.00;;;1.23;;
10277;SDS011;5184;51.376;7.148;2023-01-15T12:05:52;4.53;;;1.50;;
10277;SDS011;5184;51.376;7.148;2023-01-15T12:08:27;5.43;;;1.50;;
10277;SDS011;5184;51.376;7.148;2023-01-15T12:11:04;4.27;;;1.60;;
10277;SDS011;5184;51.376;7.148;2023-01-15T12:13:37;5.03;;;1.67;;
10277;SDS011;5184;51.376;7.148;2023-01-15T12:16:07;2.97;;;1.17;;
10277;SDS011;5184;51.376;7.148;2023-01-15T12:21:21;6.47;;;1.17;;
10277;SDS011;5184;51.376;7.148;2023-01-15T12:24:01;4.73;;;1.53;;
10277;SDS011;5184;51.376;7.148;2023-01-15T12:26:26;5.30;;;1.10;;
10277;SDS011;5184;51.376;7.148;2023-01-15T12:31:36;4.83;;;1.60;;
10277;SDS011;5184;51.376;7.148;2023-01-15T12:34:05;5.23;;;1.20;;
10277;SDS011;5184;51.376;7.148;2023-01-15T12:36:32;4.37;;;1.20;;
10277;SDS011;5184;51.376;7.148;2023-01-15T12:38:57;2.83;;;1.10;;
10277;SDS011;5184;51.376;7.148;2023-01-15T12:41:40;5.77;;;1.30;;
10277;SDS011;5184;51.376;7.148;2023-01-15T12:44:11;3.00;;;1.00;;
10277;SDS011;5184;51.376;7.148;2023-01-15T12:46:43;4.93;;;1.57;;
10277;SDS011;5184;51.376;7.148;2023-01-15T12:49:29;5.90;;;1.63;;
10277;SDS011;5184;51.376;7.148;2023-01-15T12:52:08;6.87;;;2.00;;
10277;SDS011;5184;51.376;7.148;2023-01-15T12:54:35;4.50;;;1.23;;
10277;SDS011;5184;51.376;7.148;2023-01-15T12:57:07;2.00;;;0.90;;
10277;SDS011;5184;51.376;7.148;2023-01-15T12:59:36;6.13;;;1.60;;
10277;SDS011;5184;51.376;7.148;2023-01-15T13:02:03;6.00;;;1.20;;
10277;SDS011;5184;51.376;7.148;2023-01-15T13:04:33;3.83;;;1.10;;
10277;SDS011;5184;51.376;7.148;2023-01-15T13:07:13;6.03;;;1.10;;
10277;SDS011;5184;51.376;7.148;2023-01-15T13:09:55;5.00;;;1.23;;
10277;SDS011;5184;51.376;7.148;2023-01-15T13:12:24;2.60;;;0.90;;
10277;SDS011;5184;51.376;7.148;2023-01-15T13:14:51;3.93;;;1.10;;
10277;SDS011;5184;51.376;7.148;2023-01-15T13:17:27;3.60;;;1.20;;
10277;SDS011;5184;51.376;7.148;2023-01-15T13:20:01;3.73;;;1.00;;
10277;SDS011;5184;51.376;7.148;2023-01-15T13:22:25;1.33;;;0.83;;
10277;SDS011;5184;51.376;7.148;2023-01-15T13:24:55;3.90;;;1.40;;
10277;SDS011;5184;51.376;7.148;2023-01-15T13:27:26;2.07;;;1.17;;
10277;SDS011;5184;51.376;7.148;2023-01-15T13:30:11;2.47;;;1.27;;
10277;SDS011;5184;51.376;7.148;2023-01-15T13:32:38;3.13;;;1.20;;
10277;SDS011;5184;51.376;7.148;2023-01-15T13:35:11;2.87;;;1.00;;
10277;SDS011;5184;51.376;7.148;2023-01-15T13:37:40;4.17;;;1.43;;
10277;SDS011;5184;51.376;7.148;2023-01-15T13:40:15;4.73;;;1.27;;
10277;SDS011;5184;51.376;7.148;2023-01-15T13:42:38;2.80;;;1.50;;
10277;SDS011;5184;51.376;7.148;2023-01-15T13:45:18;3.07;;;1.10;;
10277;SDS011;5184;51.376;7.148;2023-01-15T13:47:48;3.10;;;1.20;;
10277;SDS011;5184;51.376;7.148;2023-01-15T13:50:15;4.03;;;1.30;;
10277;SDS011;5184;51.376;7.148;2023-01-15T13:52:41;1.93;;;0.87;;
10277;SDS011;5184;51.376;7.148;2023-01-15T13:55:10;8.27;;;1.30;;
10277;SDS011;5184;51.376;7.148;2023-01-15T13:57:36;5.90;;;1.17;;
10277;SDS011;5184;51.376;7.148;2023-01-15T14:00:03;3.30;;;1.20;;
10277;SDS011;5184;51.376;7.148;2023-01-15T14:02:31;5.00;;;1.53;;
10277;SDS011;5184;51.376;7.148;2023-01-15T14:04:57;3.57;;;1.10;;
10277;SDS011;5184;51.376;7.148;2023-01-15T14:07:32;3.63;;;1.30;;
10277;SDS011;5184;51.376;7.148;2023-01-15T14:10:06;4.40;;;1.40;;
10277;SDS011;5184;51.376;7.148;2023-01-15T14:15:25;2.60;;;1.17;;
10277;SDS011;5184;51.376;7.148;2023-01-15T14:18:28;3.93;;;1.20;;
10277;SDS011;5184;51.376;7.148;2023-01-15T14:23:23;2.47;;;1.00;;
10277;SDS011;5184;51.376;7.148;2023-01-15T14:26:15;5.57;;;1.50;;
10277;SDS011;5184;51.376;7.148;2023-01-15T14:31:33;6.17;;;1.63;;
10277;SDS011;5184;51.376;7.148;2023-01-15T14:34:11;4.67;;;1.17;;
10277;SDS011;5184;51.376;7.148;2023-01-15T14:36:40;2.23;;;1.00;;
10277;SDS011;5184;51.376;7.148;2023-01-15T14:39:07;3.70;;;1.37;;
10277;SDS011;5184;51.376;7.148;2023-01-15T14:41:34;2.07;;;1.10;;
10277;SDS011;5184;51.376;7.148;2023-01-15T14:43:59;3.50;;;0.93;;
10277;SDS011;5184;51.376;7.148;2023-01-15T14:46:28;4.43;;;1.57;;
10277;SDS011;5184;51.376;7.148;2023-01-15T14:48:55;2.40;;;0.93;;
10277;SDS011;5184;51.376;7.148;2023-01-15T14:51:24;3.50;;;1.20;;
10277;SDS011;5184;51.376;7.148;2023-01-15T14:53:56;5.13;;;1.03;;
10277;SDS011;5184;51.376;7.148;2023-01-15T14:56:28;2.70;;;1.10;;
10277;SDS011;5184;51.376;7.148;2023-01-15T14:59:08;4.70;;;1.03;;
10277;SDS011;5184;51.376;7.148;2023-01-15T15:01:51;4.40;;;1.03;;
10277;SDS011;5184;51.376;7.148;2023-01-15T15:04:19;1.93;;;1.13;;
10277;SDS011;5184;51.376;7.148;2023-01-15T15:06:56;3.77;;;1.10;;
10277;SDS011;5184;51.376;7.148;2023-01-15T15:09:57;3.83;;;1.13;;
10277;SDS011;5184;51.376;7.148;2023-01-15T15:12:13;2.27;;;0.90;;
10277;SDS011;5184;51.376;7.148;2023-01-15T15:14:44;6.60;;;1.20;;
10277;SDS011;5184;51.376;7.148;2023-01-15T15:17:17;2.73;;;1.00;;
10277;SDS011;5184;51.376;7.148;2023-01-15T15:19:42;4.20;;;1.67;;
10277;SDS011;5184;51.376;7.148;2023-01-15T15:22:09;2.67;;;1.03;;
10277;SDS011;5184;51.376;7.148;2023-01-15T15:24:35;1.77;;;0.50;;
10277;SDS011;5184;51.376;7.148;2023-01-15T15:27:13;3.53;;;0.90;;
10277;SDS011;5184;51.376;7.148;2023-01-15T15:29:43;2.63;;;1.30;;
10277;SDS011;5184;51.376;7.148;2023-01-15T15:32:11;4.23;;;1.17;;
10277;SDS011;5184;51.376;7.148;2023-01-15T15:34:37;2.40;;;1.33;;